Time;durP1;ratioP1;P1;durP2;ratioP2;P2;SDS_P1;SDS_P2;PMS_P1;PMS_P2;Temp;Humidity;BMP_temperature;BMP_pressure;BME280_temperature;BME280_humidity;BME280_pressure;Samples;Min_cycle;Max_cycle;Signal;HPM_P1;HPM_P2
2022/08/30 00:04:37;;;;;;;;;;;25.80;43.00;;;;;;8437795;28;19961;-42
2022/08/30 00:08:39;;;;;;;;;;;25.80;43.00;;;;;;8434722;28;19942;-42
2022/08/30 00:12:41;;;;;;;;;;;25.80;43.00;;;;;;8434881;28;19920;-42
2022/08/30 00:16:41;;;;;;;;;;;25.80;43.00;;;;;;8435134;28;19927;-42
2022/08/30 00:20:42;;;;;;;;;;;25.80;43.00;;;;;;8434426;28;19924;-42
2022/08/30 00:24:42;;;;;;;;;;;25.80;43.00;;;;;;8434586;28;20388;-42
2022/08/30 00:28:42;;;;;;;;;;;25.80;43.10;;;;;;8434619;28;20277;-42
2022/08/30 00:32:43;;;;;;;;;;;25.80;43.60;;;;;;8433921;28;19963;-42
2022/08/30 00:36:44;;;;;;;;;;;25.80;43.10;;;;;;8434590;28;19916;-42
2022/08/30 00:40:44;;;;;;;;;;;25.80;43.00;;;;;;8434229;28;20375;-42
2022/08/30 00:44:45;;;;;;;;;;;25.70;43.00;;;;;;8433642;28;19916;-42
2022/08/30 00:48:46;;;;;;;;;;;25.70;43.00;;;;;;8434215;28;20007;-42
2022/08/30 00:52:48;;;;;;;;;;;25.70;43.00;;;;;;8433811;28;20003;-42
2022/08/30 00:56:49;;;;;;;;;;;25.70;43.00;;;;;;8433459;28;20407;-42
2022/08/30 01:00:52;;;;;;;;;;;25.70;43.00;;;;;;8433778;28;20070;-42
2022/08/30 01:04:54;;;;;;;;;;;25.70;43.00;;;;;;8433569;28;19916;-42
2022/08/30 01:08:55;;;;;;;;;;;25.70;43.10;;;;;;8431725;28;19939;-42
2022/08/30 01:12:55;;;;;;;;;;;25.70;43.10;;;;;;8432111;28;19927;-42
2022/08/30 01:16:56;;;;;;;;;;;25.70;43.10;;;;;;8433219;28;19920;-42
2022/08/30 01:21:09;;;;;;;;;;;25.70;43.10;;;;;;8432454;28;19916;-42
2022/08/30 01:25:10;;;;;;;;;;;25.70;43.10;;;;;;8432893;28;20277;-42
2022/08/30 01:29:14;;;;;;;;;;;25.70;43.10;;;;;;8432209;28;19943;-42
2022/08/30 01:33:14;;;;;;;;;;;25.60;43.10;;;;;;8432333;28;20072;-42
2022/08/30 01:37:20;;;;;;;;;;;25.70;43.10;;;;;;8432610;28;19969;-42
2022/08/30 01:41:25;;;;;;;;;;;25.60;43.10;;;;;;8431824;28;19920;-42
2022/08/30 01:45:26;;;;;;;;;;;25.60;43.10;;;;;;8432144;28;19916;-42
2022/08/30 01:49:26;;;;;;;;;;;25.60;43.10;;;;;;8431809;28;19912;-42
2022/08/30 01:53:27;;;;;;;;;;;25.60;43.10;;;;;;8431831;28;20320;-42
2022/08/30 01:57:28;;;;;;;;;;;25.60;43.10;;;;;;8431863;28;20300;-42
2022/08/30 02:01:29;;;;;;;;;;;25.60;43.10;;;;;;8431704;28;19920;-42
2022/08/30 02:05:30;;;;;;;;;;;25.60;43.10;;;;;;8431200;28;19923;-42
2022/08/30 02:09:31;;;;;;;;;;;25.60;43.20;;;;;;8431284;28;19948;-42
2022/08/30 02:13:32;;;;;;;;;;;25.60;43.10;;;;;;8431127;28;19931;-42
2022/08/30 02:17:33;;;;;;;;;;;25.60;43.20;;;;;;8430613;28;19942;-42
2022/08/30 02:21:33;;;;;;;;;;;25.60;43.20;;;;;;8431031;28;19931;-42
2022/08/30 02:25:33;;;;;;;;;;;25.60;43.20;;;;;;8431116;28;19912;-42
2022/08/30 02:29:34;;;;;;;;;;;25.60;43.20;;;;;;8430368;28;19962;-42
2022/08/30 02:33:34;;;;;;;;;;;25.60;43.20;;;;;;8430904;28;19920;-42
2022/08/30 02:37:35;;;;;;;;;;;25.60;43.20;;;;;;8430780;28;19920;-42
2022/08/30 02:41:37;;;;;;;;;;;25.50;43.10;;;;;;8430118;28;20038;-42
2022/08/30 02:45:37;;;;;;;;;;;25.50;43.10;;;;;;8430819;28;19916;-42
2022/08/30 02:49:38;;;;;;;;;;;25.50;43.20;;;;;;8430277;28;19970;-41
2022/08/30 02:53:39;;;;;;;;;;;25.50;43.20;;;;;;8429781;28;19934;-41
2022/08/30 02:57:39;;;;;;;;;;;25.50;43.20;;;;;;8430311;28;19916;-41
2022/08/30 03:01:40;;;;;;;;;;;25.50;43.20;;;;;;8430583;28;19923;-41
2022/08/30 03:05:40;;;;;;;;;;;25.50;43.20;;;;;;8429587;28;19923;-41
2022/08/30 03:09:41;;;;;;;;;;;25.50;43.20;;;;;;8429773;28;20291;-41
2022/08/30 03:13:41;;;;;;;;;;;25.50;43.20;;;;;;8429729;28;20342;-41
2022/08/30 03:17:42;;;;;;;;;;;25.50;43.20;;;;;;8429453;28;20284;-41
2022/08/30 03:21:42;;;;;;;;;;;25.50;43.30;;;;;;8429678;28;20007;-41
2022/08/30 03:25:43;;;;;;;;;;;25.50;43.30;;;;;;8429866;28;19912;-41
2022/08/30 03:29:43;;;;;;;;;;;25.50;43.30;;;;;;8430767;28;19916;-41
2022/08/30 03:33:44;;;;;;;;;;;25.50;43.30;;;;;;8436579;28;19924;-41
2022/08/30 03:37:45;;;;;;;;;;;25.40;43.20;;;;;;8436205;28;19920;-41
2022/08/30 03:41:45;;;;;;;;;;;25.40;43.20;;;;;;8435647;28;19949;-41
2022/08/30 03:45:45;;;;;;;;;;;25.40;43.30;;;;;;8436252;28;19955;-41
2022/08/30 03:49:46;;;;;;;;;;;25.40;43.20;;;;;;8435793;28;20394;-41
2022/08/30 03:53:46;;;;;;;;;;;25.40;43.20;;;;;;8435637;28;19920;-41
2022/08/30 03:57:47;;;;;;;;;;;25.40;43.20;;;;;;8435598;28;20274;-41
2022/08/30 04:01:47;;;;;;;;;;;25.40;43.20;;;;;;8435455;28;19938;-41
2022/08/30 04:05:48;;;;;;;;;;;25.40;43.30;;;;;;8434021;28;20395;-41
2022/08/30 04:09:48;;;;;;;;;;;25.40;43.30;;;;;;8435117;28;20284;-41
2022/08/30 04:13:50;;;;;;;;;;;25.40;43.30;;;;;;8435437;28;20418;-41
2022/08/30 04:17:52;;;;;;;;;;;25.30;43.20;;;;;;8434441;28;19927;-41
2022/08/30 04:21:53;;;;;;;;;;;25.30;43.30;;;;;;8434948;28;19916;-41
2022/08/30 04:25:54;;;;;;;;;;;25.30;43.30;;;;;;8434787;28;19919;-41
2022/08/30 04:29:55;;;;;;;;;;;25.40;43.30;;;;;;8433999;28;19916;-41
2022/08/30 04:33:55;;;;;;;;;;;25.30;43.30;;;;;;8434617;28;20330;-41
2022/08/30 04:37:56;;;;;;;;;;;25.30;43.30;;;;;;8434375;28;19916;-41
2022/08/30 04:41:56;;;;;;;;;;;25.30;43.30;;;;;;8433654;28;19923;-41
2022/08/30 04:45:57;;;;;;;;;;;25.30;43.30;;;;;;8415948;28;20342;-41
2022/08/30 04:49:58;;;;;;;;;;;25.30;43.30;;;;;;8433936;28;20006;-41
2022/08/30 04:53:59;;;;;;;;;;;25.30;43.30;;;;;;8433083;28;20402;-41
2022/08/30 04:57:59;;;;;;;;;;;25.30;43.30;;;;;;8433689;28;19916;-41
2022/08/30 05:02:00;;;;;;;;;;;25.30;43.30;;;;;;8433429;28;19919;-41
2022/08/30 05:06:00;;;;;;;;;;;25.30;43.30;;;;;;8433012;28;19998;-41
2022/08/30 05:10:02;;;;;;;;;;;25.30;43.30;;;;;;8433166;28;19920;-41
2022/08/30 05:14:03;;;;;;;;;;;25.30;43.90;;;;;;8433114;28;19957;-41
2022/08/30 05:18:04;;;;;;;;;;;25.30;43.30;;;;;;8414459;28;19916;-41
2022/08/30 05:22:04;;;;;;;;;;;25.20;43.30;;;;;;8433161;28;19916;-41
2022/08/30 05:26:06;;;;;;;;;;;25.20;43.30;;;;;;8432932;28;19916;-41
2022/08/30 05:30:07;;;;;;;;;;;25.30;43.30;;;;;;8432569;28;19924;-41
2022/08/30 05:34:07;;;;;;;;;;;25.20;43.30;;;;;;8432910;28;19912;-41
2022/08/30 05:38:08;;;;;;;;;;;25.20;43.30;;;;;;8431867;28;19978;-41
2022/08/30 05:42:08;;;;;;;;;;;25.20;43.30;;;;;;8414094;28;19920;-41
2022/08/30 05:46:10;;;;;;;;;;;25.20;43.30;;;;;;8432242;28;19962;-41
2022/08/30 05:50:10;;;;;;;;;;;25.20;43.30;;;;;;8431285;28;19951;-41
2022/08/30 05:54:12;;;;;;;;;;;25.20;43.30;;;;;;8431546;28;19913;-41
2022/08/30 05:58:12;;;;;;;;;;;25.20;43.30;;;;;;8431997;28;19916;-40
2022/08/30 06:02:13;;;;;;;;;;;25.20;43.20;;;;;;8431090;28;19939;-40
2022/08/30 06:06:13;;;;;;;;;;;25.20;43.30;;;;;;8432150;28;19916;-40
2022/08/30 06:10:14;;;;;;;;;;;25.20;43.20;;;;;;8431462;28;20398;-40
2022/08/30 06:14:14;;;;;;;;;;;25.20;43.20;;;;;;8430823;28;19912;-40
2022/08/30 06:18:15;;;;;;;;;;;25.20;43.20;;;;;;8431501;28;20014;-41
2022/08/30 06:22:15;;;;;;;;;;;25.20;43.20;;;;;;8431182;28;20364;-40
2022/08/30 06:26:16;;;;;;;;;;;25.20;43.20;;;;;;8430458;28;19993;-40
2022/08/30 06:30:16;;;;;;;;;;;25.20;43.20;;;;;;8430611;28;19932;-41
2022/08/30 06:34:17;;;;;;;;;;;25.20;43.20;;;;;;8430930;28;19912;-41
2022/08/30 06:38:18;;;;;;;;;;;25.20;43.20;;;;;;8430244;28;19969;-41
2022/08/30 06:42:18;;;;;;;;;;;25.20;43.30;;;;;;8430355;28;19924;-41
2022/08/30 06:46:21;;;;;;;;;;;25.20;43.20;;;;;;8430358;28;19931;-41
2022/08/30 06:50:21;;;;;;;;;;;25.20;43.20;;;;;;8429745;28;20360;-41
2022/08/30 06:54:22;;;;;;;;;;;25.30;43.30;;;;;;8430371;28;19977;-41
2022/08/30 06:58:22;;;;;;;;;;;25.20;43.20;;;;;;8430078;28;19916;-41
2022/08/30 07:02:23;;;;;;;;;;;25.20;43.20;;;;;;8429570;28;19924;-41
2022/08/30 07:06:24;;;;;;;;;;;25.20;43.20;;;;;;8417183;28;19939;-40
2022/08/30 07:10:25;;;;;;;;;;;25.20;43.20;;;;;;8429961;28;19920;-40
2022/08/30 07:14:25;;;;;;;;;;;25.30;43.30;;;;;;8429611;28;19928;-40
2022/08/30 07:22:45;;;;;;;;;;;25.20;43.20;;;;;;8429897;28;20372;-40
2022/08/30 07:26:48;;;;;;;;;;;25.20;43.20;;;;;;8429305;28;20011;-41
2022/08/30 07:30:48;;;;;;;;;;;25.20;43.20;;;;;;8429421;28;19977;-41
2022/08/30 07:34:49;;;;;;;;;;;25.20;43.20;;;;;;8429914;28;20318;-41
2022/08/30 07:38:50;;;;;;;;;;;25.20;43.10;;;;;;8429000;28;20360;-41
2022/08/30 07:42:50;;;;;;;;;;;25.30;43.20;;;;;;8429488;28;19923;-41
2022/08/30 07:46:50;;;;;;;;;;;25.30;43.20;;;;;;8429462;28;19916;-41
2022/08/30 07:50:51;;;;;;;;;;;25.20;43.10;;;;;;8410596;28;19924;-41
2022/08/30 07:54:52;;;;;;;;;;;25.30;43.20;;;;;;8429395;28;19919;-40
2022/08/30 07:58:52;;;;;;;;;;;25.30;43.20;;;;;;8429140;28;19939;-40
2022/08/30 08:02:53;;;;;;;;;;;25.30;43.20;;;;;;8428685;28;19916;-40
2022/08/30 08:06:54;;;;;;;;;;;25.30;43.20;;;;;;8428978;28;19923;-40
2022/08/30 08:10:55;;;;;;;;;;;25.30;43.20;;;;;;8429012;28;19921;-41
2022/08/30 08:14:55;;;;;;;;;;;25.30;43.20;;;;;;8428879;28;19971;-41
2022/08/30 08:18:56;;;;;;;;;;;25.40;43.20;;;;;;8434960;28;20292;-41
2022/08/30 08:22:57;;;;;;;;;;;25.30;43.10;;;;;;8435050;28;19919;-41
2022/08/30 08:26:57;;;;;;;;;;;25.30;43.10;;;;;;8416013;28;19916;-41
2022/08/30 08:30:58;;;;;;;;;;;25.40;43.20;;;;;;8434499;28;19920;-40
2022/08/30 08:34:58;;;;;;;;;;;25.40;43.20;;;;;;8434833;28;20304;-40
2022/08/30 08:38:59;;;;;;;;;;;25.40;43.20;;;;;;8433964;28;20455;-40
2022/08/30 08:43:01;;;;;;;;;;;25.40;43.10;;;;;;8434135;28;19916;-40
2022/08/30 08:47:07;;;;;;;;;;;25.40;43.10;;;;;;8434077;28;19947;-40
2022/08/30 08:55:36;;;;;;;;;;;25.40;43.10;;;;;;8438579;28;19924;-42
2022/08/30 08:59:37;;;;;;;;;;;25.40;43.10;;;;;;8433272;28;19916;-40
2022/08/30 09:03:38;;;;;;;;;;;25.50;43.10;;;;;;8433479;28;19924;-40
2022/08/30 09:07:41;;;;;;;;;;;25.50;43.10;;;;;;8433522;28;19916;-40
2022/08/30 09:11:41;;;;;;;;;;;25.50;43.10;;;;;;8432803;28;20391;-40
2022/08/30 09:15:42;;;;;;;;;;;25.50;43.10;;;;;;8433579;28;19963;-40
2022/08/30 09:19:44;;;;;;;;;;;25.50;43.00;;;;;;8433072;28;20384;-40
2022/08/30 09:23:47;;;;;;;;;;;25.50;43.10;;;;;;8432170;28;20288;-40
2022/08/30 09:27:48;;;;;;;;;;;25.50;43.10;;;;;;8431870;28;19912;-40
2022/08/30 09:31:51;;;;;;;;;;;25.50;43.00;;;;;;8432536;28;20014;-40
2022/08/30 09:35:53;;;;;;;;;;;25.60;43.10;;;;;;8432376;28;19912;-40
2022/08/30 09:39:53;;;;;;;;;;;25.60;43.10;;;;;;8432402;28;19939;-41
2022/08/30 09:44:17;;;;;;;;;;;25.60;43.10;;;;;;8432394;28;19966;-41
2022/08/30 09:48:38;;;;;;;;;;;25.60;43.00;;;;;;8415733;28;20049;-41
2022/08/30 09:52:56;;;;;;;;;;;25.60;43.00;;;;;;8432014;28;19924;-42
2022/08/30 09:57:04;;;;;;;;;;;25.60;43.00;;;;;;8431498;28;19923;-41
2022/08/30 10:01:05;;;;;;;;;;;25.70;43.00;;;;;;8432161;28;20371;-41
2022/08/30 10:05:14;;;;;;;;;;;25.70;43.00;;;;;;8431631;28;19923;-41
2022/08/30 10:09:17;;;;;;;;;;;25.70;43.00;;;;;;8430533;28;19923;-41
2022/08/30 10:13:33;;;;;;;;;;;25.70;43.00;;;;;;8431215;28;19928;-42
2022/08/30 10:17:40;;;;;;;;;;;25.70;43.00;;;;;;8430657;28;20021;-41
2022/08/30 10:21:43;;;;;;;;;;;25.80;43.00;;;;;;8431504;28;19917;-41
2022/08/30 10:25:47;;;;;;;;;;;25.80;42.90;;;;;;8431249;28;19920;-41
2022/08/30 10:29:59;;;;;;;;;;;25.80;42.90;;;;;;8430417;28;19916;-41
2022/08/30 10:34:03;;;;;;;;;;;25.80;42.90;;;;;;8431027;28;20089;-41
2022/08/30 10:38:10;;;;;;;;;;;25.80;42.90;;;;;;8430467;28;19916;-41
2022/08/30 10:42:17;;;;;;;;;;;25.80;42.90;;;;;;8430670;28;19924;-41
2022/08/30 10:46:20;;;;;;;;;;;25.80;42.90;;;;;;8431009;28;19935;-41
2022/08/30 10:50:24;;;;;;;;;;;25.90;43.00;;;;;;8429918;28;19920;-41
2022/08/30 10:54:37;;;;;;;;;;;25.80;42.90;;;;;;8430339;28;19962;-41
2022/08/30 10:58:38;;;;;;;;;;;25.80;42.90;;;;;;8430187;28;19923;-41
2022/08/30 11:02:57;;;;;;;;;;;25.90;42.90;;;;;;8429717;28;20011;-41
2022/08/30 11:06:58;;;;;;;;;;;25.90;43.00;;;;;;8429958;28;19919;-41
2022/08/30 11:11:11;;;;;;;;;;;25.90;42.90;;;;;;8430168;28;20341;-41
2022/08/30 11:15:19;;;;;;;;;;;25.90;42.90;;;;;;8429460;28;19920;-41
2022/08/30 11:19:22;;;;;;;;;;;25.90;42.90;;;;;;8429906;28;19924;-41
2022/08/30 11:23:28;;;;;;;;;;;25.90;42.80;;;;;;8429284;28;19912;-41
2022/08/30 11:27:39;;;;;;;;;;;25.90;42.90;;;;;;8429778;28;19912;-42
2022/08/30 11:31:40;;;;;;;;;;;26.00;42.90;;;;;;8429652;28;19974;-41
2022/08/30 11:35:42;;;;;;;;;;;26.00;42.80;;;;;;8428827;28;20315;-41
2022/08/30 11:39:46;;;;;;;;;;;26.00;42.80;;;;;;8420930;28;19916;-41
2022/08/30 11:43:47;;;;;;;;;;;26.00;42.80;;;;;;8429532;28;19912;-41
2022/08/30 11:47:52;;;;;;;;;;;26.00;42.80;;;;;;8428792;28;19923;-41
2022/08/30 11:51:53;;;;;;;;;;;26.10;42.90;;;;;;8433054;28;19999;-40
2022/08/30 11:56:11;;;;;;;;;;;26.10;42.80;;;;;;8435992;28;19923;-41
2022/08/30 12:00:32;;;;;;;;;;;26.10;42.80;;;;;;8434743;28;25784;-41
2022/08/30 12:04:41;;;;;;;;;;;26.10;42.80;;;;;;8435397;28;20042;-41
2022/08/30 12:08:43;;;;;;;;;;;26.10;42.80;;;;;;8435095;28;19916;-41
2022/08/30 12:12:46;;;;;;;;;;;26.10;42.80;;;;;;8435477;28;19924;-41
2022/08/30 12:21:14;;;;;;;;;;;26.20;42.80;;;;;;8434640;28;19923;-42
2022/08/30 12:25:17;;;;;;;;;;;26.20;42.80;;;;;;8434750;28;19916;-41
2022/08/30 12:29:19;;;;;;;;;;;26.20;42.80;;;;;;8433996;28;19919;-41
2022/08/30 12:33:30;;;;;;;;;;;26.20;42.70;;;;;;8434375;28;19977;-41
2022/08/30 12:37:40;;;;;;;;;;;26.20;42.70;;;;;;8434521;28;20376;-41
2022/08/30 12:41:41;;;;;;;;;;;26.20;42.70;;;;;;8433991;28;19920;-41
2022/08/30 12:45:44;;;;;;;;;;;26.20;42.70;;;;;;8433974;28;19970;-41
2022/08/30 12:49:45;;;;;;;;;;;26.20;42.70;;;;;;8434370;28;20365;-41
2022/08/30 12:53:45;;;;;;;;;;;26.30;42.70;;;;;;8433433;28;19924;-41
2022/08/30 12:58:06;;;;;;;;;;;26.30;42.60;;;;;;8433794;28;20050;-41
2022/08/30 13:02:10;;;;;;;;;;;26.30;42.60;;;;;;8432199;28;19916;-41
2022/08/30 13:06:11;;;;;;;;;;;26.30;42.60;;;;;;8433663;28;19948;-41
2022/08/30 13:10:15;;;;;;;;;;;26.30;42.60;;;;;;8426225;28;19916;-41
2022/08/30 13:14:26;;;;;;;;;;;26.40;42.70;;;;;;8432794;28;19913;-41
2022/08/30 13:18:28;;;;;;;;;;;26.30;42.60;;;;;;8433182;28;20276;-42
2022/08/30 13:22:30;;;;;;;;;;;26.40;42.60;;;;;;8433165;28;19924;-41
2022/08/30 13:26:35;;;;;;;;;;;26.40;42.60;;;;;;8432455;28;19916;-41
2022/08/30 13:30:36;;;;;;;;;;;26.40;42.60;;;;;;8432706;28;20009;-41
2022/08/30 13:34:37;;;;;;;;;;;26.40;42.50;;;;;;8432677;28;20361;-41
2022/08/30 13:38:37;;;;;;;;;;;26.40;42.60;;;;;;8432042;28;19923;-41
2022/08/30 13:42:40;;;;;;;;;;;26.40;42.60;;;;;;8432867;28;19912;-41
2022/08/30 13:46:42;;;;;;;;;;;26.40;42.60;;;;;;8432276;28;19991;-41
2022/08/30 13:50:43;;;;;;;;;;;26.40;42.60;;;;;;8431696;28;19928;-40
2022/08/30 13:54:45;;;;;;;;;;;26.40;42.60;;;;;;8432090;28;19991;-41
2022/08/30 13:58:45;;;;;;;;;;;26.40;42.60;;;;;;8432054;28;19916;-41
2022/08/30 14:02:46;;;;;;;;;;;26.40;42.60;;;;;;8431592;28;19943;-41
2022/08/30 14:06:47;;;;;;;;;;;26.40;42.60;;;;;;8431573;28;19994;-41
2022/08/30 14:10:47;;;;;;;;;;;26.40;42.60;;;;;;8431514;28;20320;-41
2022/08/30 14:14:48;;;;;;;;;;;26.40;42.60;;;;;;8430398;28;20273;-41
2022/08/30 14:18:48;;;;;;;;;;;26.40;42.60;;;;;;8431552;28;19935;-41
2022/08/30 14:22:49;;;;;;;;;;;26.40;42.60;;;;;;8431614;28;19927;-41
2022/08/30 14:26:50;;;;;;;;;;;26.40;42.60;;;;;;8430507;28;19950;-41
2022/08/30 14:30:50;;;;;;;;;;;26.40;42.60;;;;;;8430768;28;19924;-41
2022/08/30 14:34:51;;;;;;;;;;;26.40;42.60;;;;;;8430825;28;19912;-41
2022/08/30 14:38:51;;;;;;;;;;;26.40;42.60;;;;;;8430061;28;19916;-41
2022/08/30 14:42:52;;;;;;;;;;;26.40;42.60;;;;;;8430713;28;19919;-41
2022/08/30 14:46:54;;;;;;;;;;;26.40;43.10;;;;;;8430145;28;20389;-41
2022/08/30 14:50:54;;;;;;;;;;;26.40;42.60;;;;;;8429729;28;19995;-41
2022/08/30 14:54:56;;;;;;;;;;;26.40;42.60;;;;;;8430045;28;19934;-41
2022/08/30 14:58:59;;;;;;;;;;;26.40;42.60;;;;;;8429996;28;19923;-41
2022/08/30 15:02:59;;;;;;;;;;;26.40;42.60;;;;;;8429594;28;20333;-41
2022/08/30 15:07:00;;;;;;;;;;;26.40;42.60;;;;;;8429893;28;19923;-41
2022/08/30 15:11:05;;;;;;;;;;;26.40;42.70;;;;;;8429708;28;19920;-41
2022/08/30 15:15:06;;;;;;;;;;;26.40;42.60;;;;;;8429096;28;19973;-41
2022/08/30 15:19:08;;;;;;;;;;;26.40;42.60;;;;;;8429888;28;19912;-41
2022/08/30 15:23:08;;;;;;;;;;;26.40;42.60;;;;;;8429617;28;19916;-41
2022/08/30 15:27:09;;;;;;;;;;;26.40;42.70;;;;;;8433923;28;19920;-41
2022/08/30 15:31:09;;;;;;;;;;;26.40;42.60;;;;;;8436694;28;19927;-41
2022/08/30 15:35:10;;;;;;;;;;;26.40;42.60;;;;;;8436135;28;20327;-41
2022/08/30 15:39:11;;;;;;;;;;;26.40;42.70;;;;;;8436732;28;19942;-41
2022/08/30 15:43:12;;;;;;;;;;;26.40;42.60;;;;;;8436274;28;19916;-41
2022/08/30 15:47:13;;;;;;;;;;;26.40;42.70;;;;;;8435421;28;20002;-41
2022/08/30 15:51:15;;;;;;;;;;;26.40;42.70;;;;;;8435881;28;20396;-41
2022/08/30 15:55:15;;;;;;;;;;;26.40;42.70;;;;;;8436025;28;20284;-40
2022/08/30 15:59:17;;;;;;;;;;;26.40;42.70;;;;;;8435306;28;19916;-41
2022/08/30 16:03:17;;;;;;;;;;;26.40;42.70;;;;;;8435984;28;19911;-41
2022/08/30 16:07:18;;;;;;;;;;;26.40;42.70;;;;;;8435505;28;19924;-41
2022/08/30 16:11:21;;;;;;;;;;;26.40;42.60;;;;;;8426007;28;20338;-41
2022/08/30 16:15:21;;;;;;;;;;;26.40;42.60;;;;;;8435403;28;20334;-41
2022/08/30 16:19:22;;;;;;;;;;;26.40;42.70;;;;;;8435259;28;19965;-41
2022/08/30 16:23:23;;;;;;;;;;;26.40;42.70;;;;;;8434794;28;19952;-41
2022/08/30 16:27:23;;;;;;;;;;;26.40;42.70;;;;;;8434756;28;19962;-41
2022/08/30 16:31:25;;;;;;;;;;;26.40;42.70;;;;;;8434546;28;19985;-41
2022/08/30 16:35:25;;;;;;;;;;;26.40;42.70;;;;;;8433897;28;19913;-40
2022/08/30 16:39:26;;;;;;;;;;;26.40;42.70;;;;;;8434315;28;19919;-41
2022/08/30 16:43:26;;;;;;;;;;;26.40;42.60;;;;;;8434424;28;19922;-41
2022/08/30 16:47:27;;;;;;;;;;;26.40;42.70;;;;;;8433646;28;19995;-41
2022/08/30 16:51:28;;;;;;;;;;;26.40;42.60;;;;;;8433947;28;19924;-41
2022/08/30 16:55:29;;;;;;;;;;;26.40;42.60;;;;;;8434016;28;19960;-41
2022/08/30 16:59:30;;;;;;;;;;;26.40;42.60;;;;;;8433185;28;19920;-41
2022/08/30 17:03:30;;;;;;;;;;;26.40;42.60;;;;;;8433928;28;20372;-41
2022/08/30 17:07:31;;;;;;;;;;;26.40;42.60;;;;;;8433379;28;19969;-41
2022/08/30 17:11:32;;;;;;;;;;;26.40;42.60;;;;;;8432705;28;20288;-41
2022/08/30 17:15:33;;;;;;;;;;;26.40;42.60;;;;;;8433431;28;19920;-41
2022/08/30 17:19:33;;;;;;;;;;;26.40;42.60;;;;;;8433030;28;20325;-41
2022/08/30 17:23:34;;;;;;;;;;;26.40;42.60;;;;;;8432733;28;19916;-41
2022/08/30 17:27:34;;;;;;;;;;;26.40;42.60;;;;;;8432886;28;19923;-41
2022/08/30 17:31:35;;;;;;;;;;;26.40;42.60;;;;;;8432750;28;19977;-41
2022/08/30 17:35:35;;;;;;;;;;;26.40;42.60;;;;;;8432184;28;19916;-41
2022/08/30 17:39:36;;;;;;;;;;;26.40;42.60;;;;;;8432477;28;19966;-42
2022/08/30 17:43:36;;;;;;;;;;;26.40;42.60;;;;;;8432601;28;20380;-41
2022/08/30 17:47:37;;;;;;;;;;;26.40;42.60;;;;;;8430995;28;19962;-42
2022/08/30 17:51:40;;;;;;;;;;;26.40;42.60;;;;;;8431866;28;19924;-42
2022/08/30 17:55:46;;;;;;;;;;;26.40;42.60;;;;;;8432001;28;19977;-42
2022/08/30 17:59:46;;;;;;;;;;;26.40;42.60;;;;;;8431394;28;19987;-42
2022/08/30 18:03:47;;;;;;;;;;;26.40;42.60;;;;;;8432009;28;19912;-42
2022/08/30 18:07:47;;;;;;;;;;;26.40;42.60;;;;;;8431533;28;19999;-42
2022/08/30 18:11:48;;;;;;;;;;;26.40;42.60;;;;;;8430983;28;19955;-42
2022/08/30 18:15:49;;;;;;;;;;;26.30;42.60;;;;;;8431594;28;19945;-42
2022/08/30 18:19:49;;;;;;;;;;;26.30;42.60;;;;;;8431249;28;20396;-42
2022/08/30 18:23:50;;;;;;;;;;;26.30;42.60;;;;;;8430924;28;20376;-42
2022/08/30 18:27:50;;;;;;;;;;;26.30;42.60;;;;;;8430772;28;19923;-43
2022/08/30 18:31:51;;;;;;;;;;;26.30;42.60;;;;;;8430968;28;19931;-43
2022/08/30 18:35:52;;;;;;;;;;;26.30;42.80;;;;;;8430362;28;19947;-44
2022/08/30 18:39:52;;;;;;;;;;;26.30;42.90;;;;;;8430633;28;19912;-43
2022/08/30 18:43:53;;;;;;;;;;;26.30;43.40;;;;;;8430694;28;19912;-42
2022/08/30 18:47:53;;;;;;;;;;;26.30;42.80;;;;;;8429945;28;19920;-42
2022/08/30 18:51:53;;;;;;;;;;;26.30;42.90;;;;;;8430395;28;20014;-42
2022/08/30 18:55:54;;;;;;;;;;;26.30;43.00;;;;;;8430312;28;19916;-42
2022/08/30 18:59:55;;;;;;;;;;;26.30;43.10;;;;;;8429851;28;19924;-43
2022/08/30 19:03:55;;;;;;;;;;;26.30;43.10;;;;;;8403029;28;19917;-42
2022/08/30 19:07:56;;;;;;;;;;;26.30;43.10;;;;;;8421276;28;19917;-42
2022/08/30 19:11:56;;;;;;;;;;;26.30;43.20;;;;;;8429341;28;20381;-44
2022/08/30 19:15:57;;;;;;;;;;;26.20;43.10;;;;;;8429748;28;20368;-44
2022/08/30 19:19:57;;;;;;;;;;;26.30;43.30;;;;;;8430025;28;19916;-43
2022/08/30 19:23:57;;;;;;;;;;;26.20;43.20;;;;;;8429282;28;19922;-42
2022/08/30 19:27:58;;;;;;;;;;;26.20;43.30;;;;;;8429575;28;19916;-42
2022/08/30 19:31:58;;;;;;;;;;;26.20;43.20;;;;;;8434891;28;20026;-42
2022/08/30 19:35:59;;;;;;;;;;;26.20;43.70;;;;;;8405098;28;20288;-42
2022/08/30 19:40:00;;;;;;;;;;;26.20;43.30;;;;;;8429568;28;19916;-42
2022/08/30 19:44:02;;;;;;;;;;;26.20;43.30;;;;;;8429361;28;19951;-44
2022/08/30 19:48:02;;;;;;;;;;;26.20;43.30;;;;;;8428826;28;20010;-41
2022/08/30 19:52:03;;;;;;;;;;;26.20;43.30;;;;;;8429521;28;20045;-41
2022/08/30 19:56:03;;;;;;;;;;;26.20;43.30;;;;;;8429209;28;19950;-43
2022/08/30 20:00:06;;;;;;;;;;;26.20;43.30;;;;;;8428727;28;19995;-42
2022/08/30 20:04:07;;;;;;;;;;;26.20;43.30;;;;;;8429152;28;19916;-42
2022/08/30 20:08:07;;;;;;;;;;;26.20;43.40;;;;;;8428545;28;20364;-43
2022/08/30 20:12:08;;;;;;;;;;;26.20;43.40;;;;;;8431069;28;20001;-43
2022/08/30 20:16:09;;;;;;;;;;;26.10;43.40;;;;;;8435208;28;19920;-42
2022/08/30 20:20:11;;;;;;;;;;;26.10;43.40;;;;;;8434991;28;19916;-43
2022/08/30 20:24:12;;;;;;;;;;;26.10;43.40;;;;;;8435013;28;19963;-43
2022/08/30 20:28:12;;;;;;;;;;;26.10;43.40;;;;;;8434886;28;19916;-43
2022/08/30 20:32:12;;;;;;;;;;;26.10;43.50;;;;;;8434100;28;20392;-42
2022/08/30 20:36:13;;;;;;;;;;;26.10;43.50;;;;;;8434440;28;20015;-42
2022/08/30 20:40:13;;;;;;;;;;;26.10;43.50;;;;;;8434540;28;19912;-41
2022/08/30 20:44:15;;;;;;;;;;;26.10;43.50;;;;;;8433760;28;19920;-41
2022/08/30 20:48:16;;;;;;;;;;;26.10;43.50;;;;;;8434491;28;20399;-41
2022/08/30 20:52:16;;;;;;;;;;;26.10;43.60;;;;;;8433305;28;19963;-41
2022/08/30 20:56:18;;;;;;;;;;;26.10;43.50;;;;;;8433456;28;19917;-42
2022/08/30 21:00:18;;;;;;;;;;;26.10;43.60;;;;;;8433868;28;19918;-42
2022/08/30 21:04:19;;;;;;;;;;;26.10;43.60;;;;;;8433674;28;19920;-42
2022/08/30 21:08:19;;;;;;;;;;;26.00;43.50;;;;;;8433120;28;19920;-41
2022/08/30 21:12:20;;;;;;;;;;;26.00;43.60;;;;;;8433415;28;19928;-41
2022/08/30 21:16:20;;;;;;;;;;;26.10;43.60;;;;;;8433375;28;19924;-41
2022/08/30 21:20:21;;;;;;;;;;;26.10;43.70;;;;;;8433068;28;19995;-41
2022/08/30 21:24:22;;;;;;;;;;;26.00;43.60;;;;;;8432141;28;19916;-41
2022/08/30 21:28:22;;;;;;;;;;;26.00;43.60;;;;;;8433087;28;19920;-41
2022/08/30 21:32:23;;;;;;;;;;;26.00;43.70;;;;;;8432191;28;19953;-41
2022/08/30 21:40:43;;;;;;;;;;;26.00;43.70;;;;;;8436736;28;19923;-41
2022/08/30 21:44:43;;;;;;;;;;;26.00;43.80;;;;;;8431963;28;20257;-41
2022/08/30 21:48:45;;;;;;;;;;;26.00;43.80;;;;;;8432354;28;19916;-41
2022/08/30 21:52:45;;;;;;;;;;;26.00;43.80;;;;;;8432274;28;19921;-41
2022/08/30 21:56:47;;;;;;;;;;;26.00;43.80;;;;;;8431665;28;19961;-41
2022/08/30 22:00:48;;;;;;;;;;;26.00;43.80;;;;;;8431609;28;20006;-41
2022/08/30 22:04:48;;;;;;;;;;;26.00;43.90;;;;;;8431556;28;20399;-41
2022/08/30 22:08:49;;;;;;;;;;;25.90;43.80;;;;;;8429767;28;19939;-41
2022/08/30 22:12:50;;;;;;;;;;;26.00;43.90;;;;;;8431433;28;19951;-41
2022/08/30 22:16:50;;;;;;;;;;;26.00;43.90;;;;;;8431250;28;19920;-41
2022/08/30 22:20:51;;;;;;;;;;;25.90;43.90;;;;;;8413051;28;19912;-41
2022/08/30 22:24:51;;;;;;;;;;;25.90;43.90;;;;;;8431049;28;19996;-41
2022/08/30 22:28:52;;;;;;;;;;;25.90;43.90;;;;;;8430927;28;19986;-41
2022/08/30 22:32:53;;;;;;;;;;;25.90;43.90;;;;;;8430296;28;19924;-41
2022/08/30 22:36:53;;;;;;;;;;;25.90;44.00;;;;;;8430382;28;20273;-42
2022/08/30 22:40:53;;;;;;;;;;;25.90;44.00;;;;;;8430872;28;19995;-41
2022/08/30 22:44:54;;;;;;;;;;;25.90;44.00;;;;;;8430181;28;19923;-41
2022/08/30 22:48:54;;;;;;;;;;;25.90;44.00;;;;;;8412317;28;19923;-41
2022/08/30 22:52:55;;;;;;;;;;;25.90;44.00;;;;;;8430305;28;19977;-41
2022/08/30 22:56:55;;;;;;;;;;;25.90;44.00;;;;;;8429694;28;19961;-42
2022/08/30 23:00:56;;;;;;;;;;;25.90;44.10;;;;;;8430551;28;19912;-42
2022/08/30 23:04:56;;;;;;;;;;;25.90;44.00;;;;;;8430124;28;19923;-41
2022/08/30 23:08:56;;;;;;;;;;;25.90;44.00;;;;;;8429610;28;20015;-41
2022/08/30 23:12:57;;;;;;;;;;;25.90;44.10;;;;;;8429993;28;19931;-42
2022/08/30 23:16:58;;;;;;;;;;;25.90;44.00;;;;;;8429834;28;20269;-42
2022/08/30 23:21:02;;;;;;;;;;;25.90;44.10;;;;;;8429695;28;19920;-41
